Time,TemperatureF,DewpointF,PressureIn,WindDirection,WindDirectionDegrees,WindSpeedMPH,WindSpeedGustMPH,Humidity,HourlyPrecipIn,Conditions,Clouds,dailyrainin,SoftwareType,DateUTC
2013-01-10 00:00:00,27.0,21.6,30.37,NW,315,0.0,0.0,80,0.00,,,0.00,WUHU21636XXSP,2013-01-10 05:00:00,
2013-01-10 00:02:00,27.0,21.6,30.37,NW,315,0.0,0.0,80,0.00,,,0.00,WUHU21636XXSP,2013-01-10 05:02:00,
2013-01-10 00:07:00,26.8,21.0,30.37,NW,315,0.0,0.0,79,0.00,,,0.00,WUHU21636XXSP,2013-01-10 05:07:00,
2013-01-10 00:12:00,26.4,20.7,30.37,NW,315,0.0,0.0,79,0.00,,,0.00,WUHU21636XXSP,2013-01-10 05:12:00,
2013-01-10 00:17:00,25.9,20.1,30.37,NW,315,0.0,0.0,79,0.00,,,0.00,WUHU21636XXSP,2013-01-10 05:17:00,
2013-01-10 00:22:00,25.5,19.8,30.37,NW,315,0.0,0.0,79,0.00,,,0.00,WUHU21636XXSP,2013-01-10 05:22:00,
2013-01-10 00:27:00,25.5,19.8,30.37,NW,315,0.0,0.0,81,0.00,,,0.00,WUHU21636XXSP,2013-01-10 05:27:00,
2013-01-10 00:32:00,25.5,19.8,30.37,NW,315,0.0,0.0,81,0.00,,,0.00,WUHU21636XXSP,2013-01-10 05:32:00,
2013-01-10 00:37:00,25.3,20.3,30.36,NW,315,0.0,0.0,81,0.00,,,0.00,WUHU21636XXSP,2013-01-10 05:37:00,
2013-01-10 00:42:00,25.2,20.1,30.36,NW,315,0.0,0.0,81,0.00,,,0.00,WUHU21636XXSP,2013-01-10 05:42:00,
2013-01-10 00:47:00,25.0,20.1,30.37,NW,315,0.0,0.0,82,0.00,,,0.00,WUHU21636XXSP,2013-01-10 05:47:00,
2013-01-10 00:52:00,24.6,19.9,30.37,NW,315,0.0,0.0,82,0.00,,,0.00,WUHU21636XXSP,2013-01-10 05:52:00,
2013-01-10 00:57:00,24.4,19.8,30.36,NW,315,0.0,0.0,82,0.00,,,0.00,WUHU21636XXSP,2013-01-10 05:57:00,
2013-01-10 01:02:00,24.3,19.6,30.36,NW,315,0.0,0.0,82,0.00,,,0.00,WUHU21636XXSP,2013-01-10 06:02:00,
2013-01-10 01:07:00,24.1,19.6,30.36,NW,315,0.0,0.0,83,0.00,,,0.00,WUHU21636XXSP,2013-01-10 06:07:00,
2013-01-10 01:12:00,23.9,19.4,30.36,NW,315,0.0,0.0,83,0.00,,,0.00,WUHU21636XXSP,2013-01-10 06:12:00,
2013-01-10 01:17:00,23.7,19.2,30.37,NW,315,0.0,0.0,83,0.00,,,0.00,WUHU21636XXSP,2013-01-10 06:17:00,
2013-01-10 01:22:00,23.4,18.9,30.36,NW,315,0.0,0.0,83,0.00,,,0.00,WUHU21636XXSP,2013-01-10 06:22:00,
2013-01-10 01:27:00,23.5,19.0,30.36,NW,315,0.0,0.0,83,0.00,,,0.00,WUHU21636XXSP,2013-01-10 06:27:00,
2013-01-10 01:32:00,23.7,19.6,30.36,NW,315,0.0,0.0,84,0.00,,,0.00,WUHU21636XXSP,2013-01-10 06:32:00,
2013-01-10 01:37:00,23.5,19.6,30.37,NW,315,0.0,0.0,85,0.00,,,0.00,WUHU21636XXSP,2013-01-10 06:37:00,
2013-01-10 01:42:00,23.4,19.4,30.37,NW,315,0.0,0.0,85,0.00,,,0.00,WUHU21636XXSP,2013-01-10 06:42:00,
2013-01-10 01:47:00,22.8,18.9,30.37,NW,315,0.0,0.0,85,0.00,,,0.00,WUHU21636XXSP,2013-01-10 06:47:00,
2013-01-10 01:52:00,22.8,18.9,30.38,NW,315,0.0,0.0,84,0.00,,,0.00,WUHU21636XXSP,2013-01-10 06:52:00,
2013-01-10 01:57:00,22.8,18.9,30.37,NW,315,0.0,0.0,85,0.00,,,0.00,WUHU21636XXSP,2013-01-10 06:57:00,
2013-01-10 02:02:00,23.2,19.2,30.37,NW,315,0.0,0.0,85,0.00,,,0.00,WUHU21636XXSP,2013-01-10 07:02:00,
2013-01-10 02:07:00,22.6,18.7,30.37,NW,315,0.0,0.0,85,0.00,,,0.00,WUHU21636XXSP,2013-01-10 07:07:00,
2013-01-10 02:12:00,22.3,18.3,30.36,NW,315,0.0,0.0,85,0.00,,,0.00,WUHU21636XXSP,2013-01-10 07:12:00,
2013-01-10 02:17:00,22.1,18.1,30.37,NW,315,0.0,0.0,85,0.00,,,0.00,WUHU21636XXSP,2013-01-10 07:17:00,
2013-01-10 02:22:00,21.7,17.8,30.37,NW,315,0.0,0.0,85,0.00,,,0.00,WUHU21636XXSP,2013-01-10 07:22:00,
2013-01-10 02:27:00,21.7,17.8,30.36,NW,315,0.0,0.0,85,0.00,,,0.00,WUHU21636XXSP,2013-01-10 07:27:00,
2013-01-10 02:32:00,21.7,17.8,30.37,NW,315,0.0,0.0,86,0.00,,,0.00,WUHU21636XXSP,2013-01-10 07:32:00,
2013-01-10 02:37:00,21.6,17.6,30.38,NW,315,0.0,0.0,85,0.00,,,0.00,WUHU21636XXSP,2013-01-10 07:37:00,
2013-01-10 02:42:00,21.6,18.0,30.38,NW,315,0.0,0.0,86,0.00,,,0.00,WUHU21636XXSP,2013-01-10 07:42:00,
2013-01-10 02:47:00,21.9,18.3,30.38,NW,315,0.0,0.0,86,0.00,,,0.00,WUHU21636XXSP,2013-01-10 07:47:00,
2013-01-10 02:52:00,21.9,18.3,30.38,NW,315,0.0,0.0,86,0.00,,,0.00,WUHU21636XXSP,2013-01-10 07:52:00,
2013-01-10 02:57:00,21.4,17.8,30.39,NW,315,0.0,0.0,86,0.00,,,0.00,WUHU21636XXSP,2013-01-10 07:57:00,
2013-01-10 03:02:00,21.0,17.4,30.39,NW,315,0.0,0.0,86,0.00,,,0.00,WUHU21636XXSP,2013-01-10 08:02:00,
2013-01-10 03:07:00,21.0,17.4,30.40,NW,315,0.0,0.0,86,0.00,,,0.00,WUHU21636XXSP,2013-01-10 08:07:00,
2013-01-10 03:12:00,21.4,17.8,30.39,NW,315,0.0,0.0,86,0.00,,,0.00,WUHU21636XXSP,2013-01-10 08:12:00,
2013-01-10 03:17:00,21.6,18.0,30.39,NW,315,0.0,0.0,86,0.00,,,0.00,WUHU21636XXSP,2013-01-10 08:17:00,
2013-01-10 03:22:00,21.0,17.4,30.39,NW,315,0.0,0.0,86,0.00,,,0.00,WUHU21636XXSP,2013-01-10 08:22:00,
2013-01-10 03:27:00,20.7,17.1,30.40,NW,315,0.0,0.0,86,0.00,,,0.00,WUHU21636XXSP,2013-01-10 08:27:00,
2013-01-10 03:32:00,20.5,16.9,30.40,NW,315,0.0,0.0,86,0.00,,,0.00,WUHU21636XXSP,2013-01-10 08:32:00,
2013-01-10 03:37:00,20.3,16.7,30.40,NW,315,0.0,0.0,86,0.00,,,0.00,WUHU21636XXSP,2013-01-10 08:37:00,
2013-01-10 03:42:00,20.5,16.9,30.40,NW,315,0.0,0.0,87,0.00,,,0.00,WUHU21636XXSP,2013-01-10 08:42:00,
2013-01-10 03:47:00,20.5,16.9,30.40,NW,315,0.0,0.0,87,0.00,,,0.00,WUHU21636XXSP,2013-01-10 08:47:00,
2013-01-10 03:52:00,20.5,16.9,30.40,NW,315,0.0,0.0,87,0.00,,,0.00,WUHU21636XXSP,2013-01-10 08:52:00,
2013-01-10 03:57:00,20.3,16.9,30.40,NW,315,0.0,0.0,87,0.00,,,0.00,WUHU21636XXSP,2013-01-10 08:57:00,
2013-01-10 04:02:00,19.9,16.5,30.41,NW,315,0.0,0.0,87,0.00,,,0.00,WUHU21636XXSP,2013-01-10 09:02:00,
2013-01-10 04:07:00,19.8,16.3,30.41,NW,315,0.0,0.0,87,0.00,,,0.00,WUHU21636XXSP,2013-01-10 09:07:00,
2013-01-10 04:12:00,19.8,16.3,30.42,NW,315,0.0,0.0,87,0.00,,,0.00,WUHU21636XXSP,2013-01-10 09:12:00,
2013-01-10 04:17:00,19.9,16.5,30.42,NW,315,0.0,0.0,87,0.00,,,0.00,WUHU21636XXSP,2013-01-10 09:17:00,
2013-01-10 04:22:00,20.1,16.7,30.42,NW,315,0.0,0.0,87,0.00,,,0.00,WUHU21636XXSP,2013-01-10 09:22:00,
2013-01-10 04:27:00,19.9,16.5,30.43,NW,315,0.0,0.0,87,0.00,,,0.00,WUHU21636XXSP,2013-01-10 09:27:00,
2013-01-10 04:32:00,19.8,16.3,30.43,NW,315,0.0,0.0,87,0.00,,,0.00,WUHU21636XXSP,2013-01-10 09:32:00,
2013-01-10 04:37:00,19.8,16.3,30.44,NW,315,0.0,0.0,87,0.00,,,0.00,WUHU21636XXSP,2013-01-10 09:37:00,
2013-01-10 04:42:00,19.8,16.3,30.45,NW,315,0.0,0.0,87,0.00,,,0.00,WUHU21636XXSP,2013-01-10 09:42:00,
2013-01-10 04:47:00,19.8,16.3,30.46,NW,315,0.0,0.0,87,0.00,,,0.00,WUHU21636XXSP,2013-01-10 09:47:00,
2013-01-10 04:52:00,19.9,16.5,30.46,NW,315,0.0,0.0,87,0.00,,,0.00,WUHU21636XXSP,2013-01-10 09:52:00,
2013-01-10 04:57:00,20.1,16.7,30.46,NW,315,0.0,0.0,87,0.00,,,0.00,WUHU21636XXSP,2013-01-10 09:57:00,
2013-01-10 05:02:00,20.1,16.7,30.46,NW,315,0.0,0.0,87,0.00,,,0.00,WUHU21636XXSP,2013-01-10 10:02:00,
2013-01-10 05:07:00,20.1,16.7,30.45,NW,315,0.0,0.0,87,0.00,,,0.00,WUHU21636XXSP,2013-01-10 10:07:00,
2013-01-10 05:12:00,20.1,16.7,30.45,NW,315,0.0,0.0,87,0.00,,,0.00,WUHU21636XXSP,2013-01-10 10:12:00,
2013-01-10 05:17:00,20.1,16.7,30.46,NW,315,0.0,0.0,87,0.00,,,0.00,WUHU21636XXSP,2013-01-10 10:17:00,
2013-01-10 05:22:00,19.9,16.5,30.46,NW,315,0.0,0.0,87,0.00,,,0.00,WUHU21636XXSP,2013-01-10 10:22:00,
2013-01-10 05:27:00,19.8,16.3,30.46,NW,315,0.0,0.0,87,0.00,,,0.00,WUHU21636XXSP,2013-01-10 10:27:00,
2013-01-10 05:32:00,20.1,16.7,30.46,NW,315,0.0,0.0,87,0.00,,,0.00,WUHU21636XXSP,2013-01-10 10:32:00,
2013-01-10 05:37:00,20.3,16.9,30.46,NW,315,0.0,0.0,87,0.00,,,0.00,WUHU21636XXSP,2013-01-10 10:37:00,
2013-01-10 05:42:00,20.8,17.8,30.46,NW,315,0.0,0.0,88,0.00,,,0.00,WUHU21636XXSP,2013-01-10 10:42:00,
2013-01-10 05:47:00,20.3,16.9,30.45,NW,315,0.0,0.0,87,0.00,,,0.00,WUHU21636XXSP,2013-01-10 10:47:00,
2013-01-10 05:52:00,19.9,16.5,30.46,NW,315,0.0,0.0,87,0.00,,,0.00,WUHU21636XXSP,2013-01-10 10:52:00,
2013-01-10 05:57:00,19.8,16.3,30.46,NW,315,0.0,0.0,87,0.00,,,0.00,WUHU21636XXSP,2013-01-10 10:57:00,
2013-01-10 06:02:00,19.6,16.2,30.46,NW,315,0.0,0.0,87,0.00,,,0.00,WUHU21636XXSP,2013-01-10 11:02:00,
2013-01-10 06:07:00,19.6,16.2,30.46,NW,315,0.0,0.0,87,0.00,,,0.00,WUHU21636XXSP,2013-01-10 11:07:00,
2013-01-10 06:12:00,19.6,16.2,30.46,NW,315,0.0,0.0,87,0.00,,,0.00,WUHU21636XXSP,2013-01-10 11:12:00,
2013-01-10 06:17:00,19.8,16.3,30.46,NW,315,0.0,0.0,88,0.00,,,0.00,WUHU21636XXSP,2013-01-10 11:17:00,
2013-01-10 06:22:00,19.8,16.3,30.46,NW,315,0.0,0.0,87,0.00,,,0.00,WUHU21636XXSP,2013-01-10 11:22:00,
2013-01-10 06:27:00,19.8,16.3,30.46,NW,315,0.0,0.0,87,0.00,,,0.00,WUHU21636XXSP,2013-01-10 11:27:00,
2013-01-10 06:32:00,19.2,15.8,30.46,NW,315,0.0,0.0,87,0.00,,,0.00,WUHU21636XXSP,2013-01-10 11:32:00,
2013-01-10 06:37:00,19.0,15.6,30.46,NW,315,0.0,0.0,87,0.00,,,0.00,WUHU21636XXSP,2013-01-10 11:37:00,
2013-01-10 06:42:00,19.0,15.6,30.46,NW,315,0.0,0.0,88,0.00,,,0.00,WUHU21636XXSP,2013-01-10 11:42:00,
2013-01-10 06:47:00,19.0,15.6,30.47,NW,315,0.0,0.0,87,0.00,,,0.00,WUHU21636XXSP,2013-01-10 11:47:00,
2013-01-10 06:52:00,19.0,15.6,30.46,NW,315,0.0,0.0,87,0.00,,,0.00,WUHU21636XXSP,2013-01-10 11:52:00,
2013-01-10 06:57:00,19.0,15.6,30.46,NW,315,0.0,0.0,87,0.00,,,0.00,WUHU21636XXSP,2013-01-10 11:57:00,
2013-01-10 07:02:00,19.2,15.8,30.47,NW,315,0.0,0.0,87,0.00,,,0.00,WUHU21636XXSP,2013-01-10 12:02:00,
2013-01-10 07:07:00,19.2,15.8,30.47,NW,315,0.0,0.0,87,0.00,,,0.00,WUHU21636XXSP,2013-01-10 12:07:00,
2013-01-10 07:12:00,19.2,15.8,30.47,NW,315,0.0,0.0,87,0.00,,,0.00,WUHU21636XXSP,2013-01-10 12:12:00,
2013-01-10 07:17:00,19.8,16.7,30.47,NW,315,0.0,0.0,88,0.00,,,0.00,WUHU21636XXSP,2013-01-10 12:17:00,
2013-01-10 07:22:00,20.3,17.2,30.47,NW,315,0.0,0.0,88,0.00,,,0.00,WUHU21636XXSP,2013-01-10 12:22:00,
2013-01-10 07:27:00,20.1,16.7,30.48,NW,315,0.0,0.0,87,0.00,,,0.00,WUHU21636XXSP,2013-01-10 12:27:00,
2013-01-10 07:32:00,19.6,16.5,30.48,NW,315,0.0,0.0,88,0.00,,,0.00,WUHU21636XXSP,2013-01-10 12:32:00,
2013-01-10 07:37:00,19.2,16.2,30.48,NW,315,0.0,0.0,88,0.00,,,0.00,WUHU21636XXSP,2013-01-10 12:37:00,
2013-01-10 07:42:00,19.2,16.2,30.47,NW,315,0.0,0.0,88,0.00,,,0.00,WUHU21636XXSP,2013-01-10 12:42:00,
2013-01-10 07:47:00,19.0,16.0,30.47,NW,315,0.0,0.0,88,0.00,,,0.00,WUHU21636XXSP,2013-01-10 12:47:00,
2013-01-10 07:52:00,18.7,15.6,30.47,NW,315,0.0,0.0,88,0.00,,,0.00,WUHU21636XXSP,2013-01-10 12:52:00,
2013-01-10 07:57:00,18.5,15.4,30.47,NW,315,0.0,0.0,88,0.00,,,0.00,WUHU21636XXSP,2013-01-10 12:57:00,
2013-01-10 08:02:00,18.5,15.4,30.47,NW,315,0.0,0.0,88,0.00,,,0.00,WUHU21636XXSP,2013-01-10 13:02:00,
2013-01-10 08:07:00,18.3,14.9,30.48,NW,315,0.0,0.0,87,0.00,,,0.00,WUHU21636XXSP,2013-01-10 13:07:00,
2013-01-10 08:12:00,18.3,14.9,30.48,NW,315,0.0,0.0,87,0.00,,,0.00,WUHU21636XXSP,2013-01-10 13:12:00,
2013-01-10 08:17:00,18.1,14.7,30.48,NW,315,0.0,0.0,88,0.00,,,0.00,WUHU21636XXSP,2013-01-10 13:17:00,
2013-01-10 08:22:00,18.1,14.7,30.49,NW,315,0.0,0.0,88,0.00,,,0.00,WUHU21636XXSP,2013-01-10 13:22:00,
2013-01-10 08:27:00,18.0,14.5,30.49,NW,315,0.0,0.0,87,0.00,,,0.00,WUHU21636XXSP,2013-01-10 13:27:00,
2013-01-10 08:32:00,18.3,15.3,30.49,NW,315,0.0,0.0,88,0.00,,,0.00,WUHU21636XXSP,2013-01-10 13:32:00,
2013-01-10 08:37:00,18.7,15.6,30.49,NW,315,0.0,0.0,88,0.00,,,0.00,WUHU21636XXSP,2013-01-10 13:37:00,
2013-01-10 08:42:00,19.0,16.0,30.49,NW,315,0.0,0.0,88,0.00,,,0.00,WUHU21636XXSP,2013-01-10 13:42:00,
2013-01-10 08:47:00,19.2,16.2,30.48,NW,315,0.0,0.0,88,0.00,,,0.00,WUHU21636XXSP,2013-01-10 13:47:00,
2013-01-10 08:52:00,19.2,16.2,30.48,NW,315,0.0,0.0,88,0.00,,,0.00,WUHU21636XXSP,2013-01-10 13:52:00,
2013-01-10 08:57:00,19.2,16.2,30.48,NW,315,0.0,0.0,88,0.00,,,0.00,WUHU21636XXSP,2013-01-10 13:57:00,
2013-01-10 09:02:00,19.8,16.7,30.47,NW,315,0.0,0.0,88,0.00,,,0.00,WUHU21636XXSP,2013-01-10 14:02:00,
2013-01-10 09:07:00,20.5,17.4,30.47,NW,315,0.0,0.0,88,0.00,,,0.00,WUHU21636XXSP,2013-01-10 14:07:00,
2013-01-10 09:12:00,20.8,17.8,30.47,NW,315,0.0,0.0,88,0.00,,,0.00,WUHU21636XXSP,2013-01-10 14:12:00,
2013-01-10 09:17:00,21.4,18.3,30.47,NW,315,0.0,0.0,88,0.00,,,0.00,WUHU21636XXSP,2013-01-10 14:17:00,
2013-01-10 09:22:00,22.1,19.0,30.47,NW,315,0.0,0.0,88,0.00,,,0.00,WUHU21636XXSP,2013-01-10 14:22:00,
2013-01-10 09:27:00,22.3,19.2,30.46,NW,315,0.0,0.0,88,0.00,,,0.00,WUHU21636XXSP,2013-01-10 14:27:00,
2013-01-10 09:32:00,23.0,19.9,30.46,NW,315,0.0,0.0,88,0.00,,,0.00,WUHU21636XXSP,2013-01-10 14:32:00,
2013-01-10 09:37:00,23.7,20.7,30.46,NW,315,0.0,0.0,88,0.00,,,0.00,WUHU21636XXSP,2013-01-10 14:37:00,
2013-01-10 09:42:00,24.3,21.2,30.46,NW,315,0.0,0.0,88,0.00,,,0.00,WUHU21636XXSP,2013-01-10 14:42:00,
2013-01-10 09:47:00,25.7,22.5,30.46,NW,315,0.0,0.0,88,0.00,,,0.00,WUHU21636XXSP,2013-01-10 14:47:00,
2013-01-10 09:52:00,26.2,23.0,30.46,WNW,292,0.0,0.0,88,0.00,,,0.00,WUHU21636XXSP,2013-01-10 14:52:00,
2013-01-10 09:57:00,26.8,23.5,30.46,WNW,292,0.0,0.0,88,0.00,,,0.00,WUHU21636XXSP,2013-01-10 14:57:00,
2013-01-10 10:02:00,27.7,24.8,30.46,WNW,292,0.0,0.0,89,0.00,,,0.00,WUHU21636XXSP,2013-01-10 15:02:00,
2013-01-10 10:07:00,30.0,26.8,30.46,WNW,292,0.0,0.0,88,0.00,,,0.00,WUHU21636XXSP,2013-01-10 15:07:00,
2013-01-10 10:12:00,31.8,28.6,30.46,WNW,292,0.0,0.0,88,0.00,,,0.00,WUHU21636XXSP,2013-01-10 15:12:00,
2013-01-10 10:17:00,32.7,29.5,30.46,West,270,0.0,0.0,88,0.00,,,0.00,WUHU21636XXSP,2013-01-10 15:17:00,
2013-01-10 10:22:00,34.0,28.4,30.46,West,270,0.0,0.0,80,0.00,,,0.00,WUHU21636XXSP,2013-01-10 15:22:00,
2013-01-10 10:27:00,34.2,27.1,30.46,WSW,247,0.0,0.0,76,0.00,,,0.00,WUHU21636XXSP,2013-01-10 15:27:00,
2013-01-10 10:32:00,34.5,27.0,30.46,WSW,247,0.0,0.0,74,0.00,,,0.00,WUHU21636XXSP,2013-01-10 15:32:00,
2013-01-10 10:37:00,34.9,27.0,30.45,WSW,247,0.0,0.0,73,0.00,,,0.00,WUHU21636XXSP,2013-01-10 15:37:00,
2013-01-10 10:42:00,35.2,27.0,30.45,WSW,247,0.0,0.0,72,0.00,,,0.00,WUHU21636XXSP,2013-01-10 15:42:00,
2013-01-10 10:47:00,35.4,27.1,30.45,WSW,247,3.5,3.5,71,0.00,,,0.00,WUHU21636XXSP,2013-01-10 15:47:00,
2013-01-10 10:53:00,35.8,27.1,30.45,SW,225,0.0,3.5,71,0.00,,,0.00,WUHU21636XXSP,2013-01-10 15:53:00,
2013-01-10 10:58:00,36.1,27.3,30.44,SW,225,0.0,1.3,70,0.00,,,0.00,WUHU21636XXSP,2013-01-10 15:58:00,
2013-01-10 11:03:00,36.3,27.0,30.45,SSW,202,4.2,4.2,69,0.00,,,0.00,WUHU21636XXSP,2013-01-10 16:03:00,
2013-01-10 11:08:00,36.5,27.1,30.45,SW,225,4.9,6.9,69,0.00,,,0.00,WUHU21636XXSP,2013-01-10 16:08:00,
2013-01-10 11:13:00,37.0,27.3,30.45,SW,225,0.0,13.4,68,0.00,,,0.00,WUHU21636XXSP,2013-01-10 16:13:00,
2013-01-10 11:18:00,37.6,27.5,30.44,SW,225,3.3,13.4,67,0.00,,,0.00,WUHU21636XXSP,2013-01-10 16:18:00,
2013-01-10 11:23:00,37.9,27.5,30.45,SW,225,0.0,5.3,66,0.00,,,0.00,WUHU21636XXSP,2013-01-10 16:23:00,
2013-01-10 11:28:00,38.7,28.0,30.44,SW,225,2.2,3.3,66,0.00,,,0.00,WUHU21636XXSP,2013-01-10 16:28:00,
2013-01-10 11:33:00,38.3,26.6,30.43,SSE,157,6.0,8.9,63,0.00,,,0.00,WUHU21636XXSP,2013-01-10 16:33:00,
2013-01-10 11:38:00,37.6,26.1,30.43,South,180,9.8,12.7,63,0.00,,,0.00,WUHU21636XXSP,2013-01-10 16:38:00,
2013-01-10 11:43:00,37.6,26.4,30.43,South,180,4.6,12.7,64,0.00,,,0.00,WUHU21636XXSP,2013-01-10 16:43:00,
2013-01-10 11:48:00,37.9,26.4,30.43,South,180,7.8,10.2,63,0.00,,,0.00,WUHU21636XXSP,2013-01-10 16:48:00,
2013-01-10 11:53:00,37.9,25.9,30.43,South,180,3.3,10.0,62,0.00,,,0.00,WUHU21636XXSP,2013-01-10 16:53:00,
2013-01-10 11:58:00,38.3,26.2,30.42,South,180,5.5,10.0,62,0.00,,,0.00,WUHU21636XXSP,2013-01-10 16:58:00,
2013-01-10 12:03:00,38.1,26.1,30.42,SSE,157,6.0,11.6,62,0.00,,,0.00,WUHU21636XXSP,2013-01-10 17:03:00,
2013-01-10 12:08:00,38.1,25.7,30.43,SSE,157,5.8,12.0,61,0.00,,,0.00,WUHU21636XXSP,2013-01-10 17:08:00,
2013-01-10 12:13:00,38.3,25.9,30.43,SSE,157,4.4,12.0,61,0.00,,,0.00,WUHU21636XXSP,2013-01-10 17:13:00,
2013-01-10 12:18:00,38.8,26.4,30.43,SW,225,4.9,11.8,61,0.00,,,0.00,WUHU21636XXSP,2013-01-10 17:18:00,
2013-01-10 12:23:00,39.4,27.0,30.43,SSW,202,2.9,10.7,61,0.00,,,0.00,WUHU21636XXSP,2013-01-10 17:23:00,
2013-01-10 12:28:00,39.9,26.6,30.42,SW,225,4.6,10.7,59,0.00,,,0.00,WUHU21636XXSP,2013-01-10 17:28:00,
2013-01-10 12:33:00,40.5,26.8,30.42,SW,225,3.5,9.1,58,0.00,,,0.00,WUHU21636XXSP,2013-01-10 17:33:00,
2013-01-10 12:38:00,41.2,27.0,30.41,SSW,202,2.2,6.9,57,0.00,,,0.00,WUHU21636XXSP,2013-01-10 17:38:00,
2013-01-10 12:43:00,41.0,26.8,30.41,WSW,247,0.0,6.9,57,0.00,,,0.00,WUHU21636XXSP,2013-01-10 17:43:00,
2013-01-10 12:48:00,41.2,26.4,30.41,SSW,202,2.4,5.3,56,0.00,,,0.00,WUHU21636XXSP,2013-01-10 17:48:00,
2013-01-10 12:53:00,41.5,26.4,30.40,SSE,157,1.1,5.3,55,0.00,,,0.00,WUHU21636XXSP,2013-01-10 17:53:00,
2013-01-10 12:58:00,41.4,25.7,30.41,SSE,157,4.4,4.4,54,0.00,,,0.00,WUHU21636XXSP,2013-01-10 17:58:00,
2013-01-10 13:03:00,40.6,25.2,30.40,SSE,157,6.2,8.2,54,0.00,,,0.00,WUHU21636XXSP,2013-01-10 18:03:00,
2013-01-10 13:08:00,40.3,25.2,30.40,South,180,2.2,9.8,55,0.00,,,0.00,WUHU21636XXSP,2013-01-10 18:08:00,
2013-01-10 13:13:00,40.6,25.5,30.40,SSE,157,0.0,9.8,55,0.00,,,0.00,WUHU21636XXSP,2013-01-10 18:13:00,
2013-01-10 13:18:00,41.2,25.5,30.40,SE,135,2.6,8.5,54,0.00,,,0.00,WUHU21636XXSP,2013-01-10 18:18:00,
2013-01-10 13:23:00,41.2,25.2,30.39,SSE,157,4.6,8.2,53,0.00,,,0.00,WUHU21636XXSP,2013-01-10 18:23:00,
2013-01-10 13:28:00,41.4,24.8,30.39,South,180,2.4,7.8,52,0.00,,,0.00,WUHU21636XXSP,2013-01-10 18:28:00,
2013-01-10 13:33:00,41.7,24.8,30.39,South,180,3.5,9.6,51,0.00,,,0.00,WUHU21636XXSP,2013-01-10 18:33:00,
2013-01-10 13:38:00,41.7,25.2,30.39,SSE,157,3.5,9.6,52,0.00,,,0.00,WUHU21636XXSP,2013-01-10 18:38:00,
2013-01-10 13:43:00,41.7,25.2,30.38,South,180,3.1,7.1,52,0.00,,,0.00,WUHU21636XXSP,2013-01-10 18:43:00,
2013-01-10 13:48:00,41.7,25.2,30.38,SSW,202,2.9,3.5,51,0.00,,,0.00,WUHU21636XXSP,2013-01-10 18:48:00,
2013-01-10 13:53:00,42.3,25.3,30.37,South,180,3.3,7.8,51,0.00,,,0.00,WUHU21636XXSP,2013-01-10 18:53:00,
2013-01-10 13:58:00,42.3,25.3,30.37,SSE,157,3.5,7.8,51,0.00,,,0.00,WUHU21636XXSP,2013-01-10 18:58:00,
2013-01-10 14:03:00,42.4,25.2,30.37,SSE,157,1.1,5.3,49,0.00,,,0.00,WUHU21636XXSP,2013-01-10 19:03:00,
2013-01-10 14:08:00,43.3,24.8,30.36,South,180,2.2,3.5,48,0.00,,,0.00,WUHU21636XXSP,2013-01-10 19:08:00,
2013-01-10 14:13:00,43.9,25.9,30.36,South,180,0.0,2.6,49,0.00,,,0.00,WUHU21636XXSP,2013-01-10 19:13:00,
2013-01-10 14:18:00,43.9,24.8,30.36,SE,135,4.4,4.4,47,0.00,,,0.00,WUHU21636XXSP,2013-01-10 19:18:00,
2013-01-10 14:23:00,43.5,23.9,30.35,SSE,157,3.5,6.9,46,0.00,,,0.00,WUHU21636XXSP,2013-01-10 19:23:00,
2013-01-10 14:28:00,43.5,24.4,30.35,SE,135,3.8,6.9,47,0.00,,,0.00,WUHU21636XXSP,2013-01-10 19:28:00,
2013-01-10 14:33:00,43.7,25.2,30.35,ESE,112,4.4,4.9,48,0.00,,,0.00,WUHU21636XXSP,2013-01-10 19:33:00,
2013-01-10 14:38:00,43.0,24.4,30.35,SSE,157,2.2,8.7,48,0.00,,,0.00,WUHU21636XXSP,2013-01-10 19:38:00,
2013-01-10 14:43:00,43.0,25.0,30.34,SE,135,3.3,8.7,49,0.00,,,0.00,WUHU21636XXSP,2013-01-10 19:43:00,
2013-01-10 14:48:00,43.2,25.7,30.34,SE,135,3.8,7.8,50,0.00,,,0.00,WUHU21636XXSP,2013-01-10 19:48:00,
2013-01-10 14:53:00,43.3,25.3,30.34,SE,135,5.5,8.2,49,0.00,,,0.00,WUHU21636XXSP,2013-01-10 19:53:00,
2013-01-10 14:58:00,43.2,25.2,30.34,SE,135,3.3,8.2,49,0.00,,,0.00,WUHU21636XXSP,2013-01-10 19:58:00,
2013-01-10 15:03:00,43.2,25.2,30.34,SE,135,4.6,7.1,49,0.00,,,0.00,WUHU21636XXSP,2013-01-10 20:03:00,
2013-01-10 15:08:00,43.0,25.0,30.34,ESE,112,3.1,4.6,49,0.00,,,0.00,WUHU21636XXSP,2013-01-10 20:08:00,
2013-01-10 15:13:00,42.4,25.2,30.34,SE,135,3.1,5.3,50,0.00,,,0.00,WUHU21636XXSP,2013-01-10 20:13:00,
2013-01-10 15:18:00,42.4,24.6,30.33,SE,135,4.9,7.8,49,0.00,,,0.00,WUHU21636XXSP,2013-01-10 20:18:00,
2013-01-10 15:23:00,42.4,25.2,30.33,SE,135,4.6,7.8,50,0.00,,,0.00,WUHU21636XXSP,2013-01-10 20:23:00,
2013-01-10 15:28:00,42.6,25.3,30.33,SE,135,0.0,15.2,50,0.00,,,0.00,WUHU21636XXSP,2013-01-10 20:28:00,
2013-01-10 15:33:00,42.8,25.5,30.33,SE,135,1.7,15.2,50,0.00,,,0.00,WUHU21636XXSP,2013-01-10 20:33:00,
2013-01-10 15:38:00,42.6,25.3,30.33,SE,135,2.2,3.3,50,0.00,,,0.00,WUHU21636XXSP,2013-01-10 20:38:00,
2013-01-10 15:43:00,42.4,25.2,30.33,SSE,157,2.4,6.9,50,0.00,,,0.00,WUHU21636XXSP,2013-01-10 20:43:00,
2013-01-10 15:48:00,42.4,24.6,30.32,SSE,157,3.3,8.9,49,0.00,,,0.00,WUHU21636XXSP,2013-01-10 20:48:00,
2013-01-10 15:53:00,41.9,25.0,30.32,SE,135,5.1,8.9,51,0.00,,,0.00,WUHU21636XXSP,2013-01-10 20:53:00,
2013-01-10 15:58:00,41.7,24.8,30.31,SE,135,3.8,5.1,52,0.00,,,0.00,WUHU21636XXSP,2013-01-10 20:58:00,
2013-01-10 16:03:00,41.7,24.8,30.31,SE,135,1.3,5.1,51,0.00,,,0.00,WUHU21636XXSP,2013-01-10 21:03:00,
2013-01-10 16:08:00,41.5,24.6,30.31,SE,135,4.4,6.7,51,0.00,,,0.00,WUHU21636XXSP,2013-01-10 21:08:00,
2013-01-10 16:13:00,41.4,24.4,30.31,SE,135,3.1,7.6,51,0.00,,,0.00,WUHU21636XXSP,2013-01-10 21:13:00,
2013-01-10 16:18:00,40.8,24.4,30.31,SE,135,1.7,7.6,52,0.00,,,0.00,WUHU21636XXSP,2013-01-10 21:18:00,
2013-01-10 16:23:00,40.6,24.6,30.31,SE,135,1.3,5.3,53,0.00,,,0.00,WUHU21636XXSP,2013-01-10 21:23:00,
2013-01-10 16:28:00,40.5,23.5,30.31,SSE,157,5.3,5.3,51,0.00,,,0.00,WUHU21636XXSP,2013-01-10 21:28:00,
2013-01-10 16:33:00,40.3,24.3,30.31,SSE,157,7.8,8.2,53,0.00,,,0.00,WUHU21636XXSP,2013-01-10 21:33:00,
2013-01-10 16:38:00,40.3,24.3,30.30,SE,135,4.0,9.1,53,0.00,,,0.00,WUHU21636XXSP,2013-01-10 21:38:00,
2013-01-10 16:43:00,40.1,24.6,30.29,SE,135,5.3,9.1,54,0.00,,,0.00,WUHU21636XXSP,2013-01-10 21:43:00,
2013-01-10 16:49:00,39.7,24.3,30.30,SE,135,2.2,5.3,54,0.00,,,0.00,WUHU21636XXSP,2013-01-10 21:49:00,
2013-01-10 16:54:00,39.7,24.6,30.30,SE,135,0.0,5.3,55,0.00,,,0.00,WUHU21636XXSP,2013-01-10 21:54:00,
2013-01-10 16:59:00,39.4,24.3,30.30,SE,135,1.7,4.6,55,0.00,,,0.00,WUHU21636XXSP,2013-01-10 21:59:00,
2013-01-10 17:04:00,39.0,24.1,30.30,SE,135,0.0,3.3,55,0.00,,,0.00,WUHU21636XXSP,2013-01-10 22:04:00,
2013-01-10 17:09:00,38.8,24.3,30.30,SE,135,2.4,2.4,56,0.00,,,0.00,WUHU21636XXSP,2013-01-10 22:09:00,
2013-01-10 17:14:00,38.8,24.3,30.29,SE,135,1.5,2.4,56,0.00,,,0.00,WUHU21636XXSP,2013-01-10 22:14:00,
2013-01-10 17:19:00,38.3,24.3,30.30,SE,135,0.0,2.4,57,0.00,,,0.00,WUHU21636XXSP,2013-01-10 22:19:00,
2013-01-10 17:24:00,38.1,24.4,30.29,SE,135,3.1,3.1,58,0.00,,,0.00,WUHU21636XXSP,2013-01-10 22:24:00,
2013-01-10 17:29:00,38.1,24.4,30.29,SE,135,0.0,3.1,59,0.00,,,0.00,WUHU21636XXSP,2013-01-10 22:29:00,
2013-01-10 17:34:00,37.8,24.6,30.29,SE,135,0.0,3.8,59,0.00,,,0.00,WUHU21636XXSP,2013-01-10 22:34:00,
2013-01-10 17:39:00,37.6,24.4,30.29,SE,135,0.0,3.8,60,0.00,,,0.00,WUHU21636XXSP,2013-01-10 22:39:00,
2013-01-10 17:44:00,37.2,24.6,30.29,SE,135,0.0,0.0,60,0.00,,,0.00,WUHU21636XXSP,2013-01-10 22:44:00,
2013-01-10 17:49:00,37.0,24.4,30.29,SE,135,0.0,0.0,61,0.00,,,0.00,WUHU21636XXSP,2013-01-10 22:49:00,
2013-01-10 17:54:00,37.0,24.4,30.28,ESE,112,0.0,0.0,61,0.00,,,0.00,WUHU21636XXSP,2013-01-10 22:54:00,
2013-01-10 17:59:00,37.0,24.4,30.28,ESE,112,0.0,0.0,61,0.00,,,0.00,WUHU21636XXSP,2013-01-10 22:59:00,
2013-01-10 18:04:00,36.9,24.6,30.28,SE,135,0.0,0.0,61,0.00,,,0.00,WUHU21636XXSP,2013-01-10 23:04:00,
2013-01-10 18:09:00,36.9,24.6,30.29,SE,135,0.0,0.0,61,0.00,,,0.00,WUHU21636XXSP,2013-01-10 23:09:00,
2013-01-10 18:14:00,36.7,24.4,30.28,SE,135,0.0,0.0,61,0.00,,,0.00,WUHU21636XXSP,2013-01-10 23:14:00,
2013-01-10 18:19:00,36.7,24.4,30.28,SE,135,0.0,0.0,61,0.00,,,0.00,WUHU21636XXSP,2013-01-10 23:19:00,
2013-01-10 18:24:00,36.5,24.3,30.28,SE,135,0.0,0.0,61,0.00,,,0.00,WUHU21636XXSP,2013-01-10 23:24:00,
2013-01-10 18:29:00,36.7,24.4,30.28,SE,135,1.3,1.3,61,0.00,,,0.00,WUHU21636XXSP,2013-01-10 23:29:00,
2013-01-10 18:34:00,36.5,24.3,30.27,SSE,157,0.0,1.3,61,0.00,,,0.00,WUHU21636XXSP,2013-01-10 23:34:00,
2013-01-10 18:39:00,36.5,24.3,30.27,SSE,157,0.6,0.8,61,0.00,,,0.00,WUHU21636XXSP,2013-01-10 23:39:00,
2013-01-10 18:44:00,36.5,24.3,30.27,SSE,157,1.7,2.6,61,0.00,,,0.00,WUHU21636XXSP,2013-01-10 23:44:00,
2013-01-10 18:49:00,36.5,24.3,30.27,SE,135,0.0,2.9,61,0.00,,,0.00,WUHU21636XXSP,2013-01-10 23:49:00,
2013-01-10 18:54:00,36.5,24.3,30.27,SE,135,0.0,2.9,61,0.00,,,0.00,WUHU21636XXSP,2013-01-10 23:54:00,
2013-01-10 18:59:00,36.3,24.4,30.26,SE,135,1.3,2.9,62,0.00,,,0.00,WUHU21636XXSP,2013-01-10 23:59:00,
2013-01-10 19:04:00,36.5,24.6,30.26,SE,135,0.0,1.3,62,0.00,,,0.00,WUHU21636XXSP,2013-01-11 00:04:00,
2013-01-10 19:09:00,36.5,24.6,30.25,SSE,157,3.5,3.5,62,0.00,,,0.00,WUHU21636XXSP,2013-01-11 00:09:00,
2013-01-10 19:14:00,36.7,24.8,30.25,SE,135,0.0,3.5,62,0.00,,,0.00,WUHU21636XXSP,2013-01-11 00:14:00,
2013-01-10 19:19:00,36.7,24.8,30.25,SSE,157,0.0,4.6,62,0.00,,,0.00,WUHU21636XXSP,2013-01-11 00:19:00,
2013-01-10 19:24:00,36.5,24.3,30.24,SSE,157,0.0,4.6,61,0.00,,,0.00,WUHU21636XXSP,2013-01-11 00:24:00,
2013-01-10 19:29:00,37.0,23.9,30.24,South,180,7.3,13.1,59,0.00,,,0.00,WUHU21636XXSP,2013-01-11 00:29:00,
2013-01-10 19:34:00,37.4,24.3,30.24,SE,135,3.3,13.1,59,0.00,,,0.00,WUHU21636XXSP,2013-01-11 00:34:00,
2013-01-10 19:39:00,37.2,23.7,30.24,South,180,5.5,13.1,58,0.00,,,0.00,WUHU21636XXSP,2013-01-11 00:39:00,
2013-01-10 19:44:00,37.4,24.3,30.24,SSE,157,3.3,9.8,59,0.00,,,0.00,WUHU21636XXSP,2013-01-11 00:44:00,
2013-01-10 19:50:00,37.2,23.7,30.24,SSE,157,4.2,6.9,58,0.00,,,0.00,WUHU21636XXSP,2013-01-11 00:50:00,
2013-01-10 19:55:00,37.6,24.1,30.23,SE,135,3.3,9.1,58,0.00,,,0.00,WUHU21636XXSP,2013-01-11 00:55:00,
2013-01-10 20:00:00,37.6,24.4,30.23,SE,135,3.8,9.1,59,0.00,,,0.00,WUHU21636XXSP,2013-01-11 01:00:00,
2013-01-10 20:05:00,37.6,24.4,30.22,SSE,157,1.1,4.4,58,0.00,,,0.00,WUHU21636XXSP,2013-01-11 01:05:00,
2013-01-10 20:10:00,37.6,24.4,30.22,SSE,157,1.1,6.9,59,0.00,,,0.00,WUHU21636XXSP,2013-01-11 01:10:00,
2013-01-10 20:15:00,37.2,24.1,30.22,SE,135,3.8,6.7,59,0.00,,,0.00,WUHU21636XXSP,2013-01-11 01:15:00,
2013-01-10 20:20:00,37.2,24.1,30.21,SE,135,3.5,7.6,59,0.00,,,0.00,WUHU21636XXSP,2013-01-11 01:20:00,
2013-01-10 20:25:00,37.2,24.6,30.21,SE,135,2.4,7.6,59,0.00,,,0.00,WUHU21636XXSP,2013-01-11 01:25:00,
2013-01-10 20:30:00,37.0,23.9,30.21,SSE,157,2.9,9.1,59,0.00,,,0.00,WUHU21636XXSP,2013-01-11 01:30:00,
2013-01-10 20:35:00,37.2,24.6,30.21,SE,135,4.6,9.1,60,0.00,,,0.00,WUHU21636XXSP,2013-01-11 01:35:00,
2013-01-10 20:40:00,37.2,24.6,30.21,SE,135,4.2,7.6,60,0.00,,,0.00,WUHU21636XXSP,2013-01-11 01:40:00,
2013-01-10 20:45:00,37.0,24.8,30.20,SSE,157,6.7,9.3,61,0.00,,,0.00,WUHU21636XXSP,2013-01-11 01:45:00,
2013-01-10 20:50:00,37.0,24.8,30.19,SSE,157,8.9,13.8,61,0.00,,,0.00,WUHU21636XXSP,2013-01-11 01:50:00,
2013-01-10 20:55:00,37.2,25.0,30.19,ESE,112,7.6,13.8,61,0.00,,,0.00,WUHU21636XXSP,2013-01-11 01:55:00,
2013-01-10 21:00:00,37.2,25.0,30.19,SSE,157,6.2,13.8,61,0.00,,,0.00,WUHU21636XXSP,2013-01-11 02:00:00,
2013-01-10 21:05:00,37.2,25.3,30.18,SE,135,8.7,15.2,62,0.00,,,0.00,WUHU21636XXSP,2013-01-11 02:05:00,
2013-01-10 21:10:00,37.0,25.5,30.18,SSE,157,5.8,15.2,63,0.00,,,0.00,WUHU21636XXSP,2013-01-11 02:10:00,
2013-01-10 21:15:00,37.0,25.2,30.18,SSE,157,8.7,17.0,62,0.00,,,0.00,WUHU21636XXSP,2013-01-11 02:15:00,
2013-01-10 21:20:00,37.2,25.3,30.17,SE,135,8.2,17.0,62,0.00,,,0.00,WUHU21636XXSP,2013-01-11 02:20:00,
2013-01-10 21:25:00,37.0,25.5,30.16,SSE,157,8.0,16.1,63,0.00,,,0.00,WUHU21636XXSP,2013-01-11 02:25:00,
2013-01-10 21:30:00,37.2,25.7,30.16,SSE,157,10.9,16.5,63,0.00,,,0.00,WUHU21636XXSP,2013-01-11 02:30:00,
2013-01-10 21:35:00,37.2,25.7,30.16,ESE,112,9.1,16.5,63,0.00,,,0.00,WUHU21636XXSP,2013-01-11 02:35:00,
2013-01-10 21:40:00,37.2,25.7,30.15,SE,135,8.5,15.2,63,0.00,,,0.00,WUHU21636XXSP,2013-01-11 02:40:00,
2013-01-10 21:45:00,37.2,25.7,30.15,SE,135,5.1,14.0,63,0.00,,,0.00,WUHU21636XXSP,2013-01-11 02:45:00,
2013-01-10 21:50:00,37.2,25.3,30.14,SSE,157,6.7,15.6,62,0.00,,,0.00,WUHU21636XXSP,2013-01-11 02:50:00,
2013-01-10 21:55:00,37.6,25.7,30.15,SSE,157,8.0,17.4,62,0.00,,,0.00,WUHU21636XXSP,2013-01-11 02:55:00,
2013-01-10 22:01:00,37.6,25.7,30.15,SSE,157,10.5,17.4,62,0.00,,,0.00,WUHU21636XXSP,2013-01-11 03:01:00,
2013-01-10 22:06:00,37.6,25.7,30.15,SSE,157,4.0,14.0,62,0.00,,,0.00,WUHU21636XXSP,2013-01-11 03:06:00,
2013-01-10 22:11:00,37.4,25.5,30.14,SE,135,5.1,14.5,62,0.00,,,0.00,WUHU21636XXSP,2013-01-11 03:11:00,
2013-01-10 22:16:00,37.2,25.3,30.14,SE,135,10.5,14.5,62,0.00,,,0.00,WUHU21636XXSP,2013-01-11 03:16:00,
2013-01-10 22:21:00,37.4,25.5,30.13,SE,135,6.2,15.4,62,0.00,,,0.00,WUHU21636XXSP,2013-01-11 03:21:00,
2013-01-10 22:26:00,37.4,25.2,30.13,SSE,157,12.0,15.4,61,0.00,,,0.00,WUHU21636XXSP,2013-01-11 03:26:00,
2013-01-10 22:31:00,37.6,25.3,30.14,SE,135,6.2,16.3,61,0.00,,,0.00,WUHU21636XXSP,2013-01-11 03:31:00,
2013-01-10 22:36:00,37.6,24.8,30.13,SE,135,6.2,16.3,60,0.00,,,0.00,WUHU21636XXSP,2013-01-11 03:36:00,
2013-01-10 22:41:00,37.8,25.0,30.13,SSE,157,7.3,12.0,60,0.00,,,0.00,WUHU21636XXSP,2013-01-11 03:41:00,
2013-01-10 22:46:00,37.9,25.2,30.13,SSE,157,6.0,19.2,60,0.00,,,0.00,WUHU21636XXSP,2013-01-11 03:46:00,
2013-01-10 22:51:00,37.9,24.8,30.12,SE,135,8.0,19.2,59,0.00,,,0.00,WUHU21636XXSP,2013-01-11 03:51:00,
2013-01-10 22:56:00,38.1,25.0,30.11,SSE,157,11.1,19.0,59,0.00,,,0.00,WUHU21636XXSP,2013-01-11 03:56:00,
2013-01-10 23:01:00,38.1,24.4,30.11,SSE,157,12.3,19.0,58,0.00,,,0.00,WUHU21636XXSP,2013-01-11 04:01:00,
2013-01-10 23:06:00,38.1,24.4,30.10,South,180,12.5,19.2,58,0.00,,,0.00,WUHU21636XXSP,2013-01-11 04:06:00,
2013-01-10 23:11:00,38.1,24.4,30.10,SE,135,13.4,19.2,58,0.00,,,0.00,WUHU21636XXSP,2013-01-11 04:11:00,
2013-01-10 23:16:00,38.1,25.0,30.09,SE,135,6.7,18.5,59,0.00,,,0.00,WUHU21636XXSP,2013-01-11 04:16:00,
2013-01-10 23:21:00,37.9,25.2,30.09,SSE,157,5.5,15.4,60,0.00,,,0.00,WUHU21636XXSP,2013-01-11 04:21:00,
2013-01-10 23:26:00,37.9,24.8,30.08,SE,135,9.8,16.1,59,0.00,,,0.00,WUHU21636XXSP,2013-01-11 04:26:00,
2013-01-10 23:31:00,37.8,24.6,30.08,SE,135,5.5,16.1,59,0.00,,,0.00,WUHU21636XXSP,2013-01-11 04:31:00,
2013-01-10 23:36:00,37.6,24.8,30.08,South,180,6.7,20.5,60,0.00,,,0.00,WUHU21636XXSP,2013-01-11 04:36:00,
2013-01-10 23:41:00,37.6,24.8,30.08,SE,135,9.3,20.5,60,0.00,,,0.00,WUHU21636XXSP,2013-01-11 04:41:00,
2013-01-10 23:46:00,37.6,24.8,30.07,SSE,157,8.9,20.8,60,0.00,,,0.00,WUHU21636XXSP,2013-01-11 04:46:00,
2013-01-10 23:51:00,37.2,24.6,30.07,SE,135,7.6,20.8,60,0.00,,,0.00,WUHU21636XXSP,2013-01-11 04:51:00,
2013-01-10 23:56:00,37.2,25.0,30.06,SE,135,8.2,14.3,61,0.00,,,0.00,WUHU21636XXSP,2013-01-11 04:56:00,